Skip to main content.
 TIME   TEMPERATURE   WINDSPEED   DIRECTION   HUMIDITY   BAROMETER   RAINFALL 
2:15 23.8°C (74.8°F) 0.0 kmh (0.0 mph) SW 85% 1014.4hPa (29.96 inHg) 3.4mm (0.13 in.)
1:15 24.2°C (75.6 °F) 0.0 kmh (0.0 mph) SW 85% 1014.5hPa (29.96 inHg) 3.4mm (0.13 in.)
12:15 24.4°C (75.9 °F) 0.0 kmh (0.0 mph) SW 85% 1014.3hPa (29.95 inHg) 3.4mm (0.13 in.)
11:15 24.6°C (76.3 °F) 0.0 kmh (0.0 mph) SW 85% 1014.7hPa (29.96 inHg) 3.4mm (0.13 in.)
10:15 24.6°C (76.3 °F) 0.0 kmh (0.0 mph) SW 84% 1014.3hPa (29.95 inHg) 3.4mm (0.13 in.)
9:15 25.0°C (77.0 °F) 0.0 kmh (0.0 mph) SW 83% 1013.9hPa (29.94 inHg) 3.4mm (0.13 in.)
8:15 25.4°C (77.7 °F) 0.0 kmh (0.0 mph) SW 81% 1013.5hPa (29.93 inHg) 3.4mm (0.13 in.)
7:15 25.9°C (78.6 °F) 0.0 kmh (0.0 mph) SW 77% 1013.2hPa (29.92 inHg) 3.4mm (0.13 in.)
6:15 26.7°C (80.1 °F) 1.9 kmh (1.2 mph) SW 60% 1012.7hPa (29.91 inHg) 3.4mm (0.13 in.)
5:15 28.9°C (84.0 °F) 0.0 kmh (0.0 mph) WSW 60% 1012.5hPa (29.90 inHg) 3.4mm (0.13 in.)
4:15 29.3°C (84.7 °F) 0.0 kmh (0.0 mph) N 60% 1012.7hPa (29.91 inHg) 3.4mm (0.13 in.)
3:14 29.4°C (84.9 °F) 0.0 kmh (0.0 mph) N 69% 1013.1hPa (29.92 inHg) 3.4mm (0.13 in.)
2:11 29.1°C (84.4 °F) 125.9 kmh (78.3 mph) N 69% 1013.5hPa (29.93 inHg) 3.4mm (0.13 in.)
1:11 29.1°C (84.4 °F) 125.9 kmh (78.3 mph) N 69% 1013.9hPa (29.94 inHg) 3.4mm (0.13 in.)
12:11 28.1°C (82.6 °F) 0.0 kmh (0.0 mph) N 69% 1013.7hPa (29.93 inHg) 3.4mm (0.13 in.)
11:11 27.3°C (81.1 °F) 3.7 kmh (2.3 mph) N 75% 1013.7hPa (29.93 inHg) 3.4mm (0.13 in.)
10:11 24.1°C (75.4 °F) 7.4 kmh (4.6 mph) N 85% 1013.9hPa (29.94 inHg) 3.4mm (0.13 in.)
9:11 25.3°C (77.5 °F) 0.0 kmh (0.0 mph) N 84% 1012.8hPa (29.91 inHg) 3.4mm (0.13 in.)
8:11 24.1°C (75.4 °F) 0.0 kmh (0.0 mph) N 90% 1012.9hPa (29.91 inHg) 3.4mm (0.13 in.)
7:11 21.8°C (71.2 °F) 0.0 kmh (0.0 mph) N 94% 1012.4hPa (29.90 inHg) 3.4mm (0.13 in.)
6:11 22.9°C (73.2 °F) 9.3 kmh (5.8 mph) N 92% 1012.5hPa (29.90 inHg) 0.0mm (0.00 in.)
5:11 23.3°C (73.9 °F) 0.0 kmh (0.0 mph) N 84% 1012.5hPa (29.90 inHg) 0.0mm (0.00 in.)
4:11 24.1°C (75.4 °F) 0.0 kmh (0.0 mph) N 86% 1012.6hPa (29.90 inHg) 0.0mm (0.00 in.)
3:11 24.1°C (75.4 °F) 0.0 kmh (0.0 mph) N 85% 1012.7hPa (29.91 inHg) 0.0mm (0.00 in.)